»·PEaware :: WAT380 KBUR-KBZN

WAT380 :: KBUR-KBZN

FLIGHT INFORMATION

Flight Status: Arrived
Operator:
Walker Air Transport
More flights by this operator :: More flights under this callsign
Pilot: Spencer M. (27733)
Aircraft: BOEING 727-200
(B722)
More flights by this aircraft type
Origin: KBUR Bob Hope-Burbank
United States
Destination: KBZN Gallatin
United States
More flights between these airports :: More routes between these airports
Route: VNY3 DAG J9 DBS V21 HIA V86 BZN
File this flight plan on PilotEdge
Remarks:
Altitude:
(Current/Filed)
33,000ft
Speed:
(Current/Filed)
518kts
Departed: 20-Sep-22 07:04 PM
Arrived: 20-Sep-22 08:54 PM
Distance/Time
Traveled:
769nm/1:50
Distance/Time
To Go:
Arrived

Flight Plot

Page will automatically refresh every two minutes.

Flight plan parsing failed; only flown route is shown


Map Options




Map Legend


Flown Route
Filed Route
Departure Airport
Arrival Airport
Navaid (VOR, NDB)
Fix

Horizontal Profiles

Position Reports

Time Latitude Longitude Heading Altitude Ground
Speed
20-Sep-22 18:42 34.195763 -118.354934 137 789ft 0kts
20-Sep-22 18:44 34.195763 -118.354934 137 789ft 0kts
20-Sep-22 18:45 34.195763 -118.354934 137 789ft 0kts
20-Sep-22 18:46 34.195763 -118.354934 137 789ft 0kts
20-Sep-22 18:47 34.195763 -118.354934 137 789ft 0kts
20-Sep-22 18:47 34.195763 -118.354934 137 789ft 0kts
20-Sep-22 18:48 34.195763 -118.354934 137 789ft 0kts
20-Sep-22 18:49 34.195763 -118.354934 137 789ft 0kts
20-Sep-22 18:51 34.195763 -118.354934 137 789ft 0kts
20-Sep-22 18:52 34.195763 -118.354934 137 789ft 0kts
20-Sep-22 18:52 34.195763 -118.354934 137 789ft 0kts
20-Sep-22 18:53 34.195763 -118.354934 137 789ft 0kts
20-Sep-22 18:54 34.195771 -118.354944 137 789ft 1kts
20-Sep-22 18:55 34.195660 -118.355362 350 789ft 0kts
20-Sep-22 18:57 34.195597 -118.355342 346 789ft 0kts
20-Sep-22 18:57 34.195597 -118.355342 346 789ft 0kts
20-Sep-22 18:58 34.196402 -118.355560 350 789ft 9kts
20-Sep-22 18:59 34.199859 -118.355609 348 789ft 16kts
20-Sep-22 19:00 34.204743 -118.356995 347 789ft 19kts
20-Sep-22 19:01 34.210477 -118.358573 347 789ft 16kts
20-Sep-22 19:02 34.211950 -118.360309 174 789ft 0kts
20-Sep-22 19:03 34.194598 -118.355603 168 959ft 157kts
20-Sep-22 19:04 34.155720 -118.374531 230 2992ft 187kts
20-Sep-22 19:05 34.188566 -118.422719 349 5451ft 261kts
20-Sep-22 19:06 34.260345 -118.413582 33 8655ft 290kts
20-Sep-22 19:07 34.331657 -118.351679 39 10942ft 352kts
20-Sep-22 19:08 34.412231 -118.271780 41 13661ft 392kts
20-Sep-22 19:09 34.499533 -118.187137 38 16463ft 415kts
20-Sep-22 19:10 34.593266 -118.100057 38 18929ft 436kts
20-Sep-22 19:11 34.643449 -117.976368 82 20994ft 432kts
20-Sep-22 19:12 34.670964 -117.830366 79 23244ft 442kts
20-Sep-22 19:13 34.714864 -117.684049 72 24644ft 470kts
20-Sep-22 19:14 34.756400 -117.533214 80 26341ft 475kts
20-Sep-22 19:15 34.794391 -117.375964 82 27701ft 488kts
20-Sep-22 19:16 34.817142 -117.214622 89 29112ft 491kts
20-Sep-22 19:17 34.851504 -117.049256 80 30279ft 512kts
20-Sep-22 19:18 34.890978 -116.882163 81 31405ft 520kts
20-Sep-22 19:19 34.929706 -116.710857 81 32437ft 528kts
20-Sep-22 19:20 34.983576 -116.543919 48 32986ft 556kts
20-Sep-22 19:21 35.096317 -116.411196 48 32986ft 575kts
20-Sep-22 19:22 35.207804 -116.266775 48 32982ft 591kts
20-Sep-22 19:23 35.322267 -116.118638 48 32980ft 608kts
20-Sep-22 19:24 35.439207 -115.967574 48 32972ft 615kts
20-Sep-22 19:25 35.556233 -115.814816 49 33004ft 616kts
20-Sep-22 19:26 35.680755 -115.670217 44 33000ft 619kts
20-Sep-22 19:27 35.801373 -115.521013 48 32999ft 616kts
20-Sep-22 19:28 35.917259 -115.366546 47 32991ft 614kts
20-Sep-22 19:29 36.033160 -115.211781 49 32979ft 614kts
20-Sep-22 19:30 36.153105 -115.061893 42 32989ft 615kts
20-Sep-22 19:31 36.274557 -114.915039 49 33001ft 611kts
20-Sep-22 19:32 36.389409 -114.760794 49 33000ft 612kts
20-Sep-22 19:33 36.505690 -114.606384 48 33000ft 611kts
20-Sep-22 19:34 36.622457 -114.453080 48 33008ft 611kts
20-Sep-22 19:35 36.745107 -114.308387 31 33030ft 610kts
20-Sep-22 19:36 36.893240 -114.203308 29 33031ft 614kts
20-Sep-22 19:37 37.040427 -114.093695 31 33049ft 618kts
20-Sep-22 19:38 37.184275 -113.976614 34 33113ft 615kts
20-Sep-22 19:39 37.324619 -113.855599 34 33224ft 611kts
20-Sep-22 19:40 37.464919 -113.735787 33 33209ft 612kts
20-Sep-22 19:41 37.608899 -113.620512 30 33210ft 616kts
20-Sep-22 19:42 37.755373 -113.508666 30 33210ft 617kts
20-Sep-22 19:43 37.900459 -113.394617 32 33177ft 616kts
20-Sep-22 19:44 38.043049 -113.274826 34 33171ft 614kts
20-Sep-22 19:45 38.186158 -113.156408 32 33171ft 612kts
20-Sep-22 19:46 38.330094 -113.039834 32 33164ft 612kts
20-Sep-22 19:47 38.482299 -112.948790 21 33187ft 606kts
20-Sep-22 19:48 38.637430 -112.863089 21 33216ft 608kts
20-Sep-22 19:49 38.792759 -112.776832 20 33241ft 609kts
20-Sep-22 19:50 38.948353 -112.690812 20 33209ft 612kts
20-Sep-22 19:51 39.105059 -112.604347 20 33146ft 614kts
20-Sep-22 19:52 39.263028 -112.517616 20 33155ft 613kts
20-Sep-22 19:53 39.419493 -112.431475 19 33155ft 612kts
20-Sep-22 19:54 39.576887 -112.346878 20 33151ft 614kts
20-Sep-22 19:55 39.733737 -112.255425 22 33145ft 614kts
20-Sep-22 19:56 39.889009 -112.162502 21 33146ft 614kts
20-Sep-22 19:57 40.045656 -112.072691 20 33146ft 615kts
20-Sep-22 19:58 40.202833 -111.984114 20 33097ft 614kts
20-Sep-22 19:59 40.364216 -111.942478 350 33081ft 586kts
20-Sep-22 20:00 40.525342 -111.958833 347 33078ft 583kts
20-Sep-22 20:01 40.687735 -111.971777 350 33072ft 587kts
20-Sep-22 20:02 40.850708 -111.981014 350 33059ft 587kts
20-Sep-22 20:03 41.013188 -111.992859 349 33057ft 586kts
20-Sep-22 20:04 41.175542 -112.004938 349 33049ft 585kts
20-Sep-22 20:05 41.338010 -112.016871 349 33062ft 585kts
20-Sep-22 20:06 41.500147 -112.028433 349 33026ft 584kts
20-Sep-22 20:07 41.662184 -112.039733 349 33030ft 584kts
20-Sep-22 20:08 41.823893 -112.050678 349 33029ft 584kts
20-Sep-22 20:09 41.985795 -112.062103 349 33042ft 583kts
20-Sep-22 20:10 42.147623 -112.073853 349 33066ft 583kts
20-Sep-22 20:11 42.308932 -112.085769 349 33063ft 582kts
20-Sep-22 20:12 42.470490 -112.097752 349 33063ft 581kts
20-Sep-22 20:13 42.631739 -112.102326 353 33047ft 584kts
20-Sep-22 20:14 42.794449 -112.107455 350 33013ft 579kts
20-Sep-22 20:15 42.954085 -112.122718 347 33017ft 572kts
20-Sep-22 20:16 43.111248 -112.142350 348 33031ft 567kts
20-Sep-22 20:17 43.268021 -112.157359 350 33067ft 565kts
20-Sep-22 20:18 43.424517 -112.164797 352 33063ft 563kts
20-Sep-22 20:19 43.580851 -112.171051 351 33063ft 560kts
20-Sep-22 20:20 43.735760 -112.182221 349 33084ft 557kts
20-Sep-22 20:21 43.889698 -112.194162 350 33153ft 553kts
20-Sep-22 20:22 44.039310 -112.202704 350 32808ft 525kts
20-Sep-22 20:23 44.180768 -112.227366 338 31039ft 500kts
20-Sep-22 20:24 44.313571 -112.274004 341 29273ft 487kts
20-Sep-22 20:25 44.444614 -112.315300 341 27045ft 478kts
20-Sep-22 20:26 44.571903 -112.354486 343 25170ft 462kts
20-Sep-22 20:27 44.699480 -112.346641 1 22685ft 453kts
20-Sep-22 20:28 44.821627 -112.328002 4 20358ft 430kts
20-Sep-22 20:29 44.941199 -112.307508 5 17357ft 441kts
20-Sep-22 20:30 45.058274 -112.286865 5 16929ft 404kts
20-Sep-22 20:31 45.174776 -112.268010 3 16960ft 436kts
20-Sep-22 20:32 45.295799 -112.251833 2 16953ft 437kts
20-Sep-22 20:33 45.408622 -112.237108 2 16277ft 388kts
20-Sep-22 20:34 45.515383 -112.222403 3 14562ft 381kts
20-Sep-22 20:35 45.614858 -112.207081 4 12930ft 320kts
20-Sep-22 20:36 45.701238 -112.193694 4 12065ft 299kts
20-Sep-22 20:37 45.778763 -112.181759 5 11998ft 266kts
20-Sep-22 20:38 45.848863 -112.148429 40 12011ft 278kts
20-Sep-22 20:39 45.880907 -112.049600 79 11920ft 288kts
20-Sep-22 20:40 45.895854 -111.943294 80 10883ft 259kts
20-Sep-22 20:41 45.908407 -111.844772 79 9440ft 245kts
20-Sep-22 20:42 45.921149 -111.751130 78 9388ft 227kts
20-Sep-22 20:43 45.933859 -111.664256 76 9006ft 218kts
20-Sep-22 20:44 45.946711 -111.579393 76 8323ft 213kts
20-Sep-22 20:45 45.968161 -111.503371 54 8036ft 200kts
20-Sep-22 20:46 45.976586 -111.439154 126 8017ft 174kts
20-Sep-22 20:47 45.943894 -111.384283 130 7990ft 187kts
20-Sep-22 20:48 45.908149 -111.332193 135 7318ft 183kts
20-Sep-22 20:49 45.871832 -111.282812 135 6779ft 170kts
20-Sep-22 20:50 45.840686 -111.239935 134 5889ft 144kts
20-Sep-22 20:51 45.811495 -111.198886 135 5109ft 150kts
20-Sep-22 20:52 45.782715 -111.159014 135 4453ft 131kts
20-Sep-22 20:53 45.775718 -111.149316 136 4464ft 10kts
20-Sep-22 20:54 45.774329 -111.151287 303 4469ft 10kts
20-Sep-22 20:55 45.778144 -111.156783 309 4461ft 21kts
20-Sep-22 20:56 45.778799 -111.159794 226 4460ft 7kts
20-Sep-22 20:57 45.778635 -111.160045 226 4460ft 0kts

Navigation Log

Ident Type
Flight plan parsing failed, navigation log unavailable